MMMD 090646Z 12007KT 7SM SKC 24/23 A3000 RMK CI= 090646

MMMD 090544Z 12009KT 7SM SKC 24/22 A3001 RMK SLP161 57002 900 CI= 090544

MMMD 090445Z 10008KT 7SM FEW300 25/23 A3002 RMK 8/008= 090446

MMMD 090346Z 13004KT 7SM SCT300 25/22 A3002 RMK 8/008 SC= 090346

MMMD 090247Z 11003KT 7SM FEW025 SCT300 26/22 A3001 RMK SLP163 52013 960 8/508= 090248

MMMD 090146Z 11006KT 7SM SCT025 SCT300 26/22 A3001 RMK 8/408= 090147

MMMD 090047Z 06004KT 7SM SCT025 BKN300 27/23 A2998 RMK 8/408= 090048

MMMD 082344Z 08009KT 7SM SCT025TCU BKN300 28/23 A2997 RMK SLP150 52004 907 8/208 RA E= 082345

MMMD 082244Z 04006KT 7SM SCT025TCU BKN300 30/22 A2995 RMK 8/208= 082246

MMMD 082147Z 11005KT 7SM SCT025 BKN300 33/21 A2993 RMK 8/108 MDT CU TCU S= 082148

MMMD 082048Z 12007KT 7SM BKN025 BKN300 32/20 A2994 RMK SLP146 57028 903 8/108 MDT CU TCU S= 082050

MMMD 081946Z 00000KT 7SM BKN025 32/21 A2996 RMK 8/100 MDT CU CI= 081947

MMMD 081844Z 10004KT 7SM BKN020 31/20 A2999 RMK 8/100 MDT CU CI= 081844

MMMD 081745Z 11007KT 7SM BKN020 31/21 A3002 RMK SLP174 57006 960 8/100 MDT CU CI= 081746

MMMD 081645Z 16006KT 7SM SCT015 BKN300 30/22 A3005 RMK 8/108= 081646

MMMD 081544Z 14009KT 7SM SCT015 BKN300 29/22 A3007 RMK 8/108= 081545

MMMD 081448Z 13009KT 7SM FEW012 BKN300 27/23 A3007 RMK SLP180 52018 900 8/108 HZY= 081449

MMMD 081346Z 13006KT 6SM BKN300 24/22 A3005 RMK 8/008 HZY= 081347

MMMD 081243Z 00000KT 5SM BKN300 22/21 A3004 RMK 8/008 HZY SC= 081243

MMMD 081146Z 00000KT 6SM SCT015 23/22 A3001 RMK SLP162 52009 904 8/500 HZY CI= 081147

COR MMMD 081044Z 15008KT 6SM SCT008 24/23 A3000 RMK 8/500 HZY CI= 081055

MMMD 081044Z 15008KT 6SM BKN008 24/23 A3000 RMK 8/500 HZY CI= 081044

MMMD 080943Z 00000KT 6SM BKN008 22/21 A2997 RMK 8/500 HZY CI= 080943

MMMD 080848Z 14004KT 6SM SCT300 22/21 A2997 RMK SLP153 57008 900 8/008 HZ SC= 080850

MMMD 080743Z 15005KT 7SM SKC 23/22 A2998= 080743

MMMD 080645Z 14005KT 7SM SKC 24/22 A2999= 080645

MMMD 080548Z 14006KT 7SM SKC 24/22 A3000 RMK SLP161 57012 953= 080549

MMMD 080447Z 13007KT 7SM SKC 25/22 A3001= 080447

MMMD 080346Z 14007KT 7SM SKC 25/22 A3001= 080346

MMMD 080242Z 11008KT 7SM SKC 26/22 A3000 RMK SLP173 52025 913= 080242

MMMD 080150Z 10004KT 7SM FEW020 27/23 A3000 RMK 8/400= 080151

MMMD 080050Z 08008KT 7SM SCT020 27/22 A2998 RMK 8/400= 080050

MMMD 072348Z 36006KT 7SM BKN020TCU 28/23 A2996 RMK SLP143 52001 956 8/200= 072349

MMMD 072243Z 14004KT 7SM FEW020 30/21 A2995 RMK 8/100= 072243

MMMD 072148Z 14006KT 7SM SCT020 31/20 A2994 RMK 8/100= 072149

MMMD 072052Z 10006KT 7SM SCT020 32/21 A2994 RMK SLP143 57040 963 8/100= 072054

MMMD 071942Z 06008KT 7SM SCT020 33/21 A2995 RMK 8/100= 071942

MMMD 071844Z 12004KT 7SM BKN020 32/22 A3000 RMK 8/100= 071844

MMMD 071743Z 08004KT 7SM BKN015 31/22 A3003 RMK SLP184 57004 919 8/100= 071744

MMMD 071644Z 12006KT 7SM BKN015 29/23 A3006 RMK 8/100= 071645

MMMD 071546Z 16006KT 5SM BKN009 27/23 A3007 RMK 8/100= 071547

MMMD 071441Z 13004KT 3SM BR OVC005 25/23 A3006 RMK SLP180 57021 903 8/6//= 071442

MMMD 071346Z 11006KT 1SM BR OVC003 24/23 A3004 RMK 8/6//= 071347

MMMD 071243Z 10003KT 1SM BR BKN003 23/22 A3002 RMK 8/600= 071244

MMMD 071145Z 12004KT 1/2SM FG VV000 23/22 A3000 RMK SLP158 52005 956 8////= 071146

MMMD 071048Z 15004KT 2SM BR VV000 23/22 A3000 RMK 8////= 071049

SPECI MMMD 071013Z 00000KT 6SM BKN008 22/21 A2999 RMK 8/600 HZY= 071014

MMMD 070948Z 14004KT 7SM SKC 23/22 A2998= 070948

MMMD 070845Z 15005KT 7SM SKC 23/22 A2997 RMK SLP153 57011 970= 070846

MMMD 070745Z 15008KT 7SM SKC 24/23 A2999= 070745